Osnabrock, ND (58269)

01:39 AM CDT die 26o August, anno 2016 (GMT -0500)
Roder Farms | | Change Station

Elev 1604 ft 48.70 °N, 98.15 °W | Updated 15 seconds ago

Clear
Serena
47.5 °F
Feels Like 48 °F
N
0.9
Ventus Variabilis Ventus from Magis Zephyrus quam Auster
Gusts 2.0 mph

Hodie
High -- | Low -- °F
--% Chance of Precip.
Yesterday
High -- | Low -- °F
Precip. -- in
Pressio 30.07 in
Visibilitas 9.0 milia passuum
Clouds Serena
Frigus Venti 48 °F
Frigus in quo Ros apparet 44 °F
Umor 87%
Rainfall 0.00 in
Snow Depth Not available.
6:42 AM 8:25 PM
Last Quarter, 37% visible
METAR KD55 260455Z AUTO 00000KT 9SM CLR 09/08 A3007 RMK AO2
Pressio 30.07 in
Visibilitas 9.0 milia passuum
Clouds Serena
Frigus Venti 48 °F
Frigus in quo Ros apparet 44 °F
Umor 87%
Rainfall 0.00 in
Snow Depth Not available.
6:42 AM 8:25 PM
Last Quarter, 37% visible
METAR KD55 260455Z AUTO 00000KT 9SM CLR 09/08 A3007 RMK AO2

10-Day Weather Forecast

Almanac

Astronomy

Aug. 26, 2016 Rise Set
Actual Time
Civil Twilight
Nautical Twilight
Astronomical Twilight
Moon
Length Of Visible Light
Length of Day
Tomorrow will be .
, % of the Moon is Illuminated

Today's Extremes

State Highs State Lows

Community

WunderPhotos

Upload Photos

1,935,065 photos uploaded!

WunderBlog® & News

Nearby

Air Quality

  Air Quality AQ Index Pollutant
Not available.

Snow Depth

Station Depth Elevation

Earthquake Activity

City Distance Mag. Time & Date
Minimum magnitude displayed is 2.5.

Coastal Water Temperatures

Locus Calor

Stations

Nearby Weather Stations

Station Location Temp Frigus Venti Frigus in quo Ros apparet Umor Ventus Precip. Elev Renovata Type
                   

Watches & Warnings

There are currently no watches in effect.